Time;durP1;ratioP1;P1;durP2;ratioP2;P2;SDS_P1;SDS_P2;PMS_P1;PMS_P2;Temp;Humidity;BMP_temperature;BMP_pressure;BME280_temperature;BME280_humidity;BME280_pressure;Samples;Min_cycle;Max_cycle;Signal;HPM_P1;HPM_P2
2022/10/03 00:00:17;;;;;;;;;;;;;;;14.01;61.71;101541.97;4943326;28;6804;-79
2022/10/03 00:03:17;;;;;;;;;;;;;;;14.00;60.87;101537.63;4942497;28;11368;-80
2022/10/03 00:06:19;;;;;;;;;;;;;;;14.00;61.71;101535.06;4943401;28;6804;-80
2022/10/03 00:09:13;;;;;;;;;;;;;;;13.98;61.45;101541.78;4942412;28;7410;-80
2022/10/03 00:12:03;;;;;;;;;;;;;;;13.97;61.45;101539.16;4941446;28;7187;-80
2022/10/03 00:14:43;;;;;;;;;;;;;;;13.96;62.04;101535.69;4941385;28;6988;-80
2022/10/03 00:17:36;;;;;;;;;;;;;;;13.96;60.85;101542.53;4943553;28;7245;-81
2022/10/03 00:20:39;;;;;;;;;;;;;;;13.94;60.97;101550.19;4940316;28;7060;-80
2022/10/03 00:23:26;;;;;;;;;;;;;;;13.92;61.62;101551.81;4940202;28;7295;-80
2022/10/03 00:26:29;;;;;;;;;;;;;;;13.91;60.84;101549.13;4941987;28;7163;-81
2022/10/03 00:29:13;;;;;;;;;;;;;;;13.88;61.14;101549.84;4939311;28;8431;-80
2022/10/03 00:31:58;;;;;;;;;;;;;;;13.84;61.80;101550.50;4923321;28;8447;-81
2022/10/03 00:34:45;;;;;;;;;;;;;;;13.84;61.44;101553.09;4940321;28;8676;-80
2022/10/03 00:37:40;;;;;;;;;;;;;;;13.82;62.12;101549.53;4942825;28;7378;-80
2022/10/03 00:40:54;;;;;;;;;;;;;;;13.81;61.99;101542.59;4941092;28;6796;-80
2022/10/03 00:44:16;;;;;;;;;;;;;;;13.80;61.81;101546.88;4940970;28;7216;-81
2022/10/03 00:47:00;;;;;;;;;;;;;;;13.78;61.16;101547.59;4941601;28;7197;-79
2022/10/03 00:50:06;;;;;;;;;;;;;;;13.78;61.19;101550.16;4939922;28;7182;-80
2022/10/03 00:52:47;;;;;;;;;;;;;;;13.74;61.86;101547.44;4939472;28;7389;-81
2022/10/03 00:56:09;;;;;;;;;;;;;;;13.73;60.98;101553.41;4941564;28;7143;-80
2022/10/03 00:58:56;;;;;;;;;;;;;;;13.69;61.50;101551.44;4938897;28;7935;-81
2022/10/03 01:01:41;;;;;;;;;;;;;;;13.67;61.63;101540.19;4939863;28;7210;-81
2022/10/03 01:04:44;;;;;;;;;;;;;;;13.66;61.11;101551.28;4940551;28;7320;-81
2022/10/03 01:08:05;;;;;;;;;;;;;;;13.64;61.86;101542.59;4943150;28;7201;-80
2022/10/03 01:10:54;;;;;;;;;;;;;;;13.63;61.33;101548.56;4941861;28;7154;-81
2022/10/03 01:13:41;;;;;;;;;;;;;;;13.62;62.15;101557.09;4920632;28;8446;-81
2022/10/03 01:16:55;;;;;;;;;;;;;;;13.61;61.96;101545.00;4941696;28;7222;-81
2022/10/03 01:19:49;;;;;;;;;;;;;;;13.60;61.33;101543.22;4941410;28;6972;-80
2022/10/03 01:23:04;;;;;;;;;;;;;;;13.59;61.24;101546.59;4925626;28;8487;-81
2022/10/03 01:25:49;;;;;;;;;;;;;;;13.58;62.10;101544.84;4926568;28;7285;-81
2022/10/03 01:32:40;;;;;;;;;;;;;;;13.55;60.90;101545.56;4944040;28;7063;-81
2022/10/03 01:35:44;;;;;;;;;;;;;;;13.52;61.73;101545.41;4939275;28;6800;-81
2022/10/03 01:38:33;;;;;;;;;;;;;;;13.52;61.11;101552.22;4940231;28;6964;-81
2022/10/03 01:41:16;;;;;;;;;;;;;;;13.49;62.09;101559.78;4941817;28;6880;-81
2022/10/03 01:43:59;;;;;;;;;;;;;;;13.47;61.39;101558.03;4930545;28;8842;-80
2022/10/03 01:46:45;;;;;;;;;;;;;;;13.49;61.79;101562.38;4931963;28;8538;-82
2022/10/03 01:49:36;;;;;;;;;;;;;;;13.47;61.71;101568.31;4924621;28;9791;-79
2022/10/03 01:52:22;;;;;;;;;;;;;;;13.45;62.02;101564.78;4940225;28;7225;-81
2022/10/03 01:55:25;;;;;;;;;;;;;;;13.45;61.40;101572.50;4915737;28;8464;-81
2022/10/03 01:58:30;;;;;;;;;;;;;;;13.42;62.41;101567.16;4943932;28;8768;-81
2022/10/03 02:01:20;;;;;;;;;;;;;;;13.42;62.56;101574.88;4943008;28;6976;-80
2022/10/03 02:04:41;;;;;;;;;;;;;;;13.43;62.28;101579.25;4945078;28;6796;-81
2022/10/03 02:07:16;;;;;;;;;;;;;;;13.45;61.74;101584.47;4934962;28;7553;-81
2022/10/03 02:10:26;;;;;;;;;;;;;;;13.47;61.99;101582.88;4945166;28;7151;-80
2022/10/03 02:13:24;;;;;;;;;;;;;;;13.50;62.96;101583.06;4946617;28;6983;-81
2022/10/03 02:16:11;;;;;;;;;;;;;;;13.57;63.10;101584.28;4935843;28;8630;-79
2022/10/03 02:19:02;;;;;;;;;;;;;;;13.64;63.42;101586.41;4943417;28;8691;-81
2022/10/03 02:21:32;;;;;;;;;;;;;;;13.74;63.41;101587.75;4941715;28;7323;-81
2022/10/03 02:24:35;;;;;;;;;;;;;;;13.81;63.15;101583.81;4944541;28;7291;-81
2022/10/03 02:27:35;;;;;;;;;;;;;;;13.90;63.04;101576.59;4928597;28;7218;-81
2022/10/03 02:30:11;;;;;;;;;;;;;;;13.93;62.35;101575.88;4948035;28;7252;-81
2022/10/03 02:33:41;;;;;;;;;;;;;;;13.96;62.01;101574.34;4942476;28;11733;-81
2022/10/03 02:36:31;;;;;;;;;;;;;;;13.97;62.47;101575.25;4941447;28;8454;-80
2022/10/03 02:39:34;;;;;;;;;;;;;;;13.97;61.83;101578.69;4943474;28;7316;-81
2022/10/03 02:42:58;;;;;;;;;;;;;;;13.94;61.63;101575.97;4945712;28;6820;-81
2022/10/03 02:45:54;;;;;;;;;;;;;;;13.91;61.63;101577.47;4944686;28;8298;-81
2022/10/03 02:49:06;;;;;;;;;;;;;;;13.88;61.99;101578.19;4943945;28;8428;-82
2022/10/03 02:51:56;;;;;;;;;;;;;;;13.82;61.49;101580.47;4944666;28;6804;-81
2022/10/03 02:54:38;;;;;;;;;;;;;;;13.76;61.42;101581.00;4942749;28;8966;-81
2022/10/03 02:57:39;;;;;;;;;;;;;;;13.72;61.52;101585.13;4944249;28;6959;-77
2022/10/03 03:00:54;;;;;;;;;;;;;;;13.69;61.70;101574.63;4945566;28;7228;-81
2022/10/03 03:03:59;;;;;;;;;;;;;;;13.65;61.72;101583.00;4944428;28;11445;-81
2022/10/03 03:06:43;;;;;;;;;;;;;;;13.63;62.54;101579.47;4941633;28;8683;-81
2022/10/03 03:09:35;;;;;;;;;;;;;;;13.65;61.95;101585.59;4926993;28;8589;-82
2022/10/03 03:12:47;;;;;;;;;;;;;;;13.67;62.88;101586.56;4942444;28;8753;-82
2022/10/03 03:15:35;;;;;;;;;;;;;;;13.69;62.29;101584.94;4945728;28;6995;-81
2022/10/03 03:18:33;;;;;;;;;;;;;;;13.70;61.78;101580.69;4942539;28;8822;-81
2022/10/03 03:20:59;;;;;;;;;;;;;;;13.71;61.74;101596.25;4942472;28;7008;-81
2022/10/03 03:23:30;;;;;;;;;;;;;;;13.70;61.98;101596.16;4945167;28;6955;-80
2022/10/03 03:26:15;;;;;;;;;;;;;;;13.69;62.63;101586.66;4945034;28;6981;-82
2022/10/03 03:29:24;;;;;;;;;;;;;;;13.67;62.00;101590.84;4930271;28;7192;-81
2022/10/03 03:32:33;;;;;;;;;;;;;;;13.64;61.96;101588.06;4939464;28;8459;-81
2022/10/03 03:35:32;;;;;;;;;;;;;;;13.59;61.91;101591.28;4942938;28;6812;-81
2022/10/03 03:38:51;;;;;;;;;;;;;;;13.58;62.07;101591.19;4941234;28;8535;-80
2022/10/03 03:42:24;;;;;;;;;;;;;;;13.54;62.88;101585.00;4942579;28;6995;-81
2022/10/03 03:45:47;;;;;;;;;;;;;;;13.52;62.46;101596.91;4943072;28;8563;-81
2022/10/03 03:48:49;;;;;;;;;;;;;;;13.49;62.66;101595.84;4934038;28;6989;-82
2022/10/03 03:51:42;;;;;;;;;;;;;;;13.50;62.29;101597.63;4933667;28;7433;-81
2022/10/03 03:54:20;;;;;;;;;;;;;;;13.52;62.36;101608.88;4943167;28;6970;-82
2022/10/03 03:57:23;;;;;;;;;;;;;;;13.53;62.81;101602.97;4941854;28;7044;-80
2022/10/03 03:59:57;;;;;;;;;;;;;;;13.55;61.99;101603.91;4943860;28;6915;-82
2022/10/03 04:02:37;;;;;;;;;;;;;;;13.54;62.11;101590.16;4938986;28;8478;-79
2022/10/03 04:05:39;;;;;;;;;;;;;;;13.53;61.59;101600.38;4944710;28;7377;-82
2022/10/03 04:08:44;;;;;;;;;;;;;;;13.49;62.68;101596.75;4943571;28;7352;-81
2022/10/03 04:11:36;;;;;;;;;;;;;;;13.46;62.32;101602.59;4940421;28;8534;-81
2022/10/03 04:14:33;;;;;;;;;;;;;;;13.44;61.83;101600.72;4941448;28;7900;-80
2022/10/03 04:21:10;;;;;;;;;;;;;;;13.35;61.66;101603.66;4935102;28;6816;-82
2022/10/03 04:23:59;;;;;;;;;;;;;;;13.33;61.86;101611.31;4924680;28;8741;-81
2022/10/03 04:26:52;;;;;;;;;;;;;;;13.33;62.54;101608.72;4940817;28;7017;-81
2022/10/03 04:30:05;;;;;;;;;;;;;;;13.34;62.36;101612.19;4941166;28;7340;-79
2022/10/03 04:32:59;;;;;;;;;;;;;;;13.38;62.34;101608.97;4914447;28;7238;-82
2022/10/03 04:36:19;;;;;;;;;;;;;;;13.43;63.41;101610.13;4922686;28;8385;-82
2022/10/03 04:39:19;;;;;;;;;;;;;;;13.50;63.28;101615.63;4928843;28;7252;-79
2022/10/03 04:42:30;;;;;;;;;;;;;;;13.57;63.82;101621.25;4941764;28;6800;-81
2022/10/03 04:45:27;;;;;;;;;;;;;;;13.68;62.92;101623.53;4942141;28;7271;-82
2022/10/03 04:48:16;;;;;;;;;;;;;;;13.77;63.73;101620.53;4938043;28;6808;-81
2022/10/03 04:50:59;;;;;;;;;;;;;;;13.83;63.09;101615.72;4933360;28;7200;-81
2022/10/03 04:54:14;;;;;;;;;;;;;;;13.92;62.87;101620.50;4931788;28;8669;-82
2022/10/03 04:57:06;;;;;;;;;;;;;;;13.98;62.94;101628.56;4930804;28;8817;-81
2022/10/03 04:59:58;;;;;;;;;;;;;;;14.05;63.40;101628.09;4924614;28;7252;-82
2022/10/03 05:02:52;;;;;;;;;;;;;;;14.09;63.47;101616.22;4940646;28;7022;-81
2022/10/03 05:05:56;;;;;;;;;;;;;;;14.12;62.55;101611.25;4941736;28;8716;-81
2022/10/03 05:08:54;;;;;;;;;;;;;;;14.16;62.40;101611.50;4943096;28;8111;-80
2022/10/03 05:12:02;;;;;;;;;;;;;;;14.16;63.02;101614.06;4934804;28;8661;-82
2022/10/03 05:14:57;;;;;;;;;;;;;;;14.14;62.43;101614.78;4940419;28;8471;-81
2022/10/03 05:18:01;;;;;;;;;;;;;;;14.14;62.14;101604.47;4942758;28;7198;-81
2022/10/03 05:21:04;;;;;;;;;;;;;;;14.14;62.96;101617.38;4939620;28;8861;-82
2022/10/03 05:23:51;;;;;;;;;;;;;;;14.15;62.46;101613.97;4913921;28;7188;-82
2022/10/03 05:26:40;;;;;;;;;;;;;;;14.19;63.20;101615.91;4923213;28;8388;-81
2022/10/03 05:29:51;;;;;;;;;;;;;;;14.20;62.93;101620.28;4938990;28;7174;-82
2022/10/03 05:32:30;;;;;;;;;;;;;;;14.16;62.46;101623.47;4909014;28;8482;-81
2022/10/03 05:35:26;;;;;;;;;;;;;;;14.11;62.59;101628.41;4942165;28;6796;-81
2022/10/03 05:38:14;;;;;;;;;;;;;;;14.06;62.32;101636.69;4941151;28;8436;-81
2022/10/03 05:41:01;;;;;;;;;;;;;;;14.00;62.54;101637.25;4940899;28;8711;-80
2022/10/03 05:43:53;;;;;;;;;;;;;;;13.94;61.72;101637.81;4938054;28;6796;-81
2022/10/03 05:46:49;;;;;;;;;;;;;;;13.89;62.13;101646.97;4940089;28;7215;-81
2022/10/03 05:49:55;;;;;;;;;;;;;;;13.86;62.47;101651.97;4940552;28;8820;-81
2022/10/03 05:52:56;;;;;;;;;;;;;;;13.82;62.51;101647.47;4937640;28;8450;-81
2022/10/03 05:55:57;;;;;;;;;;;;;;;13.85;62.63;101653.66;4939212;28;8419;-81
2022/10/03 05:58:56;;;;;;;;;;;;;;;13.92;63.41;101657.47;4927835;28;8242;-80
2022/10/03 06:02:01;;;;;;;;;;;;;;;13.99;62.57;101661.25;4937477;28;6975;-81
2022/10/03 06:05:02;;;;;;;;;;;;;;;14.05;62.93;101665.84;4940380;28;6808;-80
2022/10/03 06:07:56;;;;;;;;;;;;;;;14.13;63.60;101669.75;4935875;28;6977;-81
2022/10/03 06:11:03;;;;;;;;;;;;;;;14.21;62.80;101671.03;4942233;28;7218;-81
2022/10/03 06:14:46;;;;;;;;;;;;;;;14.29;62.36;101667.19;4922176;28;7193;-80
2022/10/03 06:17:11;;;;;;;;;;;;;;;14.36;62.47;101670.97;4886402;29;8648;-80
2022/10/03 06:19:54;;;;;;;;;;;;;;;14.41;62.45;101669.50;4918799;29;7079;-81
2022/10/03 06:22:49;;;;;;;;;;;;;;;14.49;63.47;101664.75;4921449;28;8773;-81
2022/10/03 06:25:41;;;;;;;;;;;;;;;14.57;62.58;101663.44;4939021;28;7394;-81
2022/10/03 06:29:03;;;;;;;;;;;;;;;14.62;62.57;101665.38;4940550;28;8394;-81
2022/10/03 06:32:10;;;;;;;;;;;;;;;14.65;62.93;101670.69;4940252;28;6792;-81
2022/10/03 06:35:13;;;;;;;;;;;;;;;14.69;62.34;101675.22;4941556;28;7088;-82
2022/10/03 06:37:51;;;;;;;;;;;;;;;14.71;62.79;101671.91;4940579;28;8444;-80
2022/10/03 06:41:25;;;;;;;;;;;;;;;14.79;63.21;101668.88;4940714;28;7186;-81
2022/10/03 06:44:06;;;;;;;;;;;;;;;14.86;62.59;101671.81;4933420;28;8357;-80
2022/10/03 06:47:20;;;;;;;;;;;;;;;14.93;62.63;101674.72;4945723;28;7211;-82
2022/10/03 06:50:17;;;;;;;;;;;;;;;15.00;63.15;101675.09;4941755;28;8234;-81
2022/10/03 06:53:42;;;;;;;;;;;;;;;15.09;62.71;101672.09;4944348;28;6989;-81
2022/10/03 06:56:51;;;;;;;;;;;;;;;15.20;62.57;101675.19;4900467;28;8938;-81
2022/10/03 06:59:35;;;;;;;;;;;;;;;15.32;62.24;101671.47;4943657;28;7216;-82
2022/10/03 07:02:49;;;;;;;;;;;;;;;15.45;62.94;101671.25;4930403;28;8475;-81
2022/10/03 07:05:57;;;;;;;;;;;;;;;15.58;63.23;101677.91;4943414;28;7001;-80
2022/10/03 07:09:01;;;;;;;;;;;;;;;15.69;62.61;101684.47;4941701;28;7252;-81
2022/10/03 07:12:05;;;;;;;;;;;;;;;15.84;62.27;101683.44;4942280;28;6987;-81
2022/10/03 07:15:09;;;;;;;;;;;;;;;15.96;62.26;101680.53;4941734;28;7895;-79
2022/10/03 07:17:53;;;;;;;;;;;;;;;16.05;62.00;101682.69;4941982;28;7230;-80
2022/10/03 07:20:44;;;;;;;;;;;;;;;16.15;62.05;101681.38;4944049;28;6936;-80
2022/10/03 07:23:38;;;;;;;;;;;;;;;16.23;61.81;101682.63;4941386;28;6991;-81
2022/10/03 07:26:28;;;;;;;;;;;;;;;16.31;61.79;101690.72;4945599;28;7020;-81
2022/10/03 07:29:55;;;;;;;;;;;;;;;16.44;62.27;101681.81;4945414;28;7215;-79
2022/10/03 07:32:34;;;;;;;;;;;;;;;16.60;61.92;101693.72;4939093;28;7243;-81
2022/10/03 07:35:11;;;;;;;;;;;;;;;16.71;62.06;101687.31;4925049;28;8422;-81
2022/10/03 07:42:03;;;;;;;;;;;;;;;16.91;61.21;101690.75;4943966;28;6777;-81
2022/10/03 07:45:05;;;;;;;;;;;;;;;16.97;61.07;101699.63;4944746;28;6821;-80
2022/10/03 07:48:12;;;;;;;;;;;;;;;17.02;61.17;101706.78;4942246;28;7178;-81
2022/10/03 07:50:43;;;;;;;;;;;;;;;17.05;60.85;101711.22;4942251;28;8134;-81
2022/10/03 07:53:55;;;;;;;;;;;;;;;17.12;61.17;101712.34;4940299;28;6988;-80
2022/10/03 07:57:03;;;;;;;;;;;;;;;17.18;61.21;101718.69;4941799;28;7771;-81
2022/10/03 08:00:10;;;;;;;;;;;;;;;17.30;60.87;101720.91;4943178;28;7190;-80
2022/10/03 08:03:01;;;;;;;;;;;;;;;17.47;60.90;101712.91;4941098;28;11653;-80
2022/10/03 08:05:53;;;;;;;;;;;;;;;17.61;60.81;101722.13;4941949;28;7194;-80
2022/10/03 08:09:03;;;;;;;;;;;;;;;17.73;60.24;101718.25;4928086;28;8746;-81
2022/10/03 08:11:50;;;;;;;;;;;;;;;17.88;60.95;101726.66;4941138;28;7067;-80
2022/10/03 08:14:41;;;;;;;;;;;;;;;18.06;61.01;101723.03;4943237;28;6990;-82
2022/10/03 08:17:24;;;;;;;;;;;;;;;18.29;60.33;101725.59;4942763;28;7398;-81
2022/10/03 08:20:37;;;;;;;;;;;;;;;18.53;60.22;101727.31;4925340;28;8444;-80
2022/10/03 08:23:23;;;;;;;;;;;;;;;18.66;59.67;101729.56;4942216;28;7276;-79
2022/10/03 08:26:13;;;;;;;;;;;;;;;18.75;59.48;101726.38;4940095;28;6966;-80
2022/10/03 08:29:30;;;;;;;;;;;;;;;18.80;58.99;101727.44;4942936;28;8395;-79
2022/10/03 08:32:20;;;;;;;;;;;;;;;18.86;58.69;101737.16;4942526;28;7160;-80
2022/10/03 08:35:17;;;;;;;;;;;;;;;18.88;58.09;101738.09;4944269;28;6969;-81
2022/10/03 08:38:16;;;;;;;;;;;;;;;18.84;58.08;101736.25;4941505;28;7213;-80
2022/10/03 08:41:15;;;;;;;;;;;;;;;18.73;57.41;101736.75;4940523;28;8438;-80
2022/10/03 08:44:18;;;;;;;;;;;;;;;18.67;57.50;101735.63;4939369;28;6987;-80
2022/10/03 08:47:34;;;;;;;;;;;;;;;18.69;58.07;101733.97;4941827;28;7220;-80
2022/10/03 08:50:31;;;;;;;;;;;;;;;18.75;58.38;101729.00;4941410;28;7377;-80
2022/10/03 08:54:02;;;;;;;;;;;;;;;18.86;58.07;101726.78;4941410;28;7212;-80
2022/10/03 08:56:44;;;;;;;;;;;;;;;18.93;57.32;101727.88;4938216;28;7204;-79
2022/10/03 09:00:08;;;;;;;;;;;;;;;18.95;57.30;101727.09;4921398;28;8429;-80
2022/10/03 09:03:15;;;;;;;;;;;;;;;18.91;56.68;101725.22;4942095;28;7195;-80
2022/10/03 09:06:39;;;;;;;;;;;;;;;18.86;57.29;101721.59;4941785;28;7391;-80
2022/10/03 09:09:26;;;;;;;;;;;;;;;18.80;57.15;101724.84;4940094;28;8486;-80
2022/10/03 09:11:55;;;;;;;;;;;;;;;18.77;56.65;101724.72;4940949;28;7938;-78
2022/10/03 09:14:45;;;;;;;;;;;;;;;18.75;56.26;101731.59;4940562;28;7027;-80
2022/10/03 09:17:32;;;;;;;;;;;;;;;18.70;56.99;101731.41;4939790;28;8044;-79
2022/10/03 09:20:26;;;;;;;;;;;;;;;18.71;57.00;101727.13;4940786;28;6948;-80
2022/10/03 09:23:03;;;;;;;;;;;;;;;18.70;56.81;101726.22;4942188;28;7214;-80
2022/10/03 09:26:01;;;;;;;;;;;;;;;18.71;56.44;101728.00;4940173;28;8519;-80
2022/10/03 09:28:49;;;;;;;;;;;;;;;18.73;56.76;101726.34;4942669;28;8958;-79
2022/10/03 09:31:55;;;;;;;;;;;;;;;18.79;56.56;101727.38;4942599;28;6957;-80
2022/10/03 09:34:53;;;;;;;;;;;;;;;18.83;56.28;101717.16;4941615;28;7214;-80
2022/10/03 09:38:06;;;;;;;;;;;;;;;18.89;56.46;101719.09;4943088;28;7266;-80
2022/10/03 09:41:02;;;;;;;;;;;;;;;18.97;56.63;101720.22;4940350;28;7365;-80
2022/10/03 09:44:05;;;;;;;;;;;;;;;19.08;56.71;101722.34;4942098;28;6999;-80
2022/10/03 09:50:12;;;;;;;;;;;;;;;19.43;56.95;101717.44;4941654;28;6792;-79
2022/10/03 09:53:23;;;;;;;;;;;;;;;19.71;57.17;101714.00;4939444;29;7369;-80
2022/10/03 09:56:18;;;;;;;;;;;;;;;19.93;56.83;101708.56;4939993;28;6968;-80
2022/10/03 09:59:14;;;;;;;;;;;;;;;20.20;56.00;101710.28;4942764;28;6808;-79
2022/10/03 10:02:25;;;;;;;;;;;;;;;20.40;55.80;101713.44;4937320;28;7183;-80
2022/10/03 10:05:05;;;;;;;;;;;;;;;20.57;55.45;101702.59;4940567;29;7144;-80
2022/10/03 10:08:06;;;;;;;;;;;;;;;21.00;55.69;101705.50;4939353;28;6804;-80
2022/10/03 10:11:03;;;;;;;;;;;;;;;21.54;53.66;101698.13;4939929;28;7282;-80
2022/10/03 10:14:03;;;;;;;;;;;;;;;21.81;52.52;101692.66;4939235;28;6797;-81
2022/10/03 10:16:53;;;;;;;;;;;;;;;21.92;51.82;101700.72;4944778;28;6997;-80
2022/10/03 10:19:36;;;;;;;;;;;;;;;21.95;51.03;101697.28;4946128;28;6993;-80
2022/10/03 10:22:13;;;;;;;;;;;;;;;21.87;50.02;101692.78;4932065;28;7192;-81
2022/10/03 10:25:35;;;;;;;;;;;;;;;21.76;50.32;101682.13;4936942;28;7051;-82
2022/10/03 10:28:21;;;;;;;;;;;;;;;21.78;50.34;101683.03;4942172;28;7256;-83
2022/10/03 10:31:51;;;;;;;;;;;;;;;21.91;50.43;101693.72;4942188;28;6962;-82
2022/10/03 10:34:29;;;;;;;;;;;;;;;22.18;50.54;101689.94;4879991;29;8478;-82
2022/10/03 10:37:26;;;;;;;;;;;;;;;22.81;51.15;101690.31;4920421;28;8573;-79
2022/10/03 10:40:23;;;;;;;;;;;;;;;23.94;49.84;101678.06;4941981;28;6979;-77
2022/10/03 10:43:22;;;;;;;;;;;;;;;25.17;47.35;101671.50;4928522;28;7032;-82
2022/10/03 10:46:32;;;;;;;;;;;;;;;26.16;45.68;101670.28;4939084;28;10502;-82
2022/10/03 10:49:31;;;;;;;;;;;;;;;26.90;44.15;101666.94;4939030;28;6793;-82
2022/10/03 10:52:20;;;;;;;;;;;;;;;27.61;42.91;101667.72;4942576;28;6808;-79
2022/10/03 10:55:02;;;;;;;;;;;;;;;28.21;41.38;101666.66;4922697;28;7079;-79
2022/10/03 10:57:56;;;;;;;;;;;;;;;28.79;39.86;101667.97;4938401;28;8539;-77
2022/10/03 11:01:00;;;;;;;;;;;;;;;29.52;40.03;101654.13;4936216;28;7038;-77
2022/10/03 11:04:04;;;;;;;;;;;;;;;30.43;38.76;101661.75;4929754;28;6828;-81
2022/10/03 11:06:40;;;;;;;;;;;;;;;31.15;36.09;101655.31;4935267;28;6876;-81
2022/10/03 11:09:45;;;;;;;;;;;;;;;31.76;34.25;101655.00;4915255;28;7142;-80
2022/10/03 11:12:46;;;;;;;;;;;;;;;32.55;32.52;101661.22;4940497;28;7428;-79
2022/10/03 11:15:36;;;;;;;;;;;;;;;32.96;31.39;101647.81;4942520;28;7293;-78
2022/10/03 11:18:58;;;;;;;;;;;;;;;33.01;30.80;101657.47;4936170;28;8132;-79
2022/10/03 11:21:58;;;;;;;;;;;;;;;32.44;29.82;101642.03;4932156;28;8736;-79
2022/10/03 11:25:27;;;;;;;;;;;;;;;31.16;29.48;101654.41;4941547;28;6880;-78
2022/10/03 11:28:17;;;;;;;;;;;;;;;29.47;30.96;101657.72;4934977;28;6980;-80
2022/10/03 11:31:10;;;;;;;;;;;;;;;28.22;32.54;101660.50;4923236;28;6956;-80
2022/10/03 11:34:02;;;;;;;;;;;;;;;26.76;33.80;101673.06;4943204;28;7223;-80
2022/10/03 11:37:04;;;;;;;;;;;;;;;25.76;34.64;101671.00;4937961;28;8100;-80
2022/10/03 11:40:33;;;;;;;;;;;;;;;25.26;36.02;101673.31;4933961;28;6980;-78
2022/10/03 11:43:50;;;;;;;;;;;;;;;25.87;35.60;101669.28;4935605;28;6987;-78
2022/10/03 11:46:41;;;;;;;;;;;;;;;26.22;35.22;101662.47;4920250;28;7031;-82
2022/10/03 11:49:48;;;;;;;;;;;;;;;26.14;35.39;101658.91;4919629;28;6941;-79
2022/10/03 11:53:00;;;;;;;;;;;;;;;25.82;35.65;101668.41;4929213;28;8115;-78
2022/10/03 11:55:38;;;;;;;;;;;;;;;25.42;36.05;101662.91;4936024;28;6816;-79
2022/10/03 11:58:33;;;;;;;;;;;;;;;24.99;36.60;101660.88;4920007;28;9629;-79
2022/10/03 12:01:24;;;;;;;;;;;;;;;24.52;36.41;101663.91;4936931;28;8833;-79
2022/10/03 12:04:27;;;;;;;;;;;;;;;24.45;37.82;101667.34;4939296;28;6828;-79
2022/10/03 12:10:19;;;;;;;;;;;;;;;26.19;36.52;101658.06;4938932;28;6788;-79
2022/10/03 12:12:55;;;;;;;;;;;;;;;27.24;35.52;101650.25;4936128;28;6816;-80
2022/10/03 12:15:38;;;;;;;;;;;;;;;27.70;34.78;101644.91;4934742;28;8496;-79
2022/10/03 12:18:32;;;;;;;;;;;;;;;27.58;34.32;101642.31;4938832;28;7649;-80
2022/10/03 12:21:08;;;;;;;;;;;;;;;27.12;34.53;101643.25;4938996;28;7492;-79
2022/10/03 12:24:02;;;;;;;;;;;;;;;26.62;34.95;101638.88;4914575;28;7139;-78
2022/10/03 12:26:48;;;;;;;;;;;;;;;26.19;35.24;101642.31;4921600;28;7238;-80
2022/10/03 12:29:19;;;;;;;;;;;;;;;25.81;35.38;101643.03;4935887;28;6829;-80
2022/10/03 12:32:20;;;;;;;;;;;;;;;25.38;35.67;101638.41;4935197;28;7285;-77
2022/10/03 12:35:39;;;;;;;;;;;;;;;24.91;36.52;101637.19;4922879;28;7179;-79
2022/10/03 12:38:42;;;;;;;;;;;;;;;24.43;36.88;101641.97;4938445;28;6812;-80
2022/10/03 12:41:42;;;;;;;;;;;;;;;24.11;37.29;101653.88;4936283;28;7207;-80
2022/10/03 12:44:32;;;;;;;;;;;;;;;23.92;37.69;101651.00;4937223;28;7002;-78
2022/10/03 12:47:13;;;;;;;;;;;;;;;23.84;37.45;101647.38;4934406;28;7372;-80
2022/10/03 12:50:09;;;;;;;;;;;;;;;23.84;37.46;101647.38;4937719;28;7213;-79
2022/10/03 12:53:18;;;;;;;;;;;;;;;23.92;37.42;101647.50;4916916;28;6943;-79
2022/10/03 12:55:53;;;;;;;;;;;;;;;23.98;37.04;101637.09;4922228;28;8534;-80
2022/10/03 12:58:43;;;;;;;;;;;;;;;24.02;37.28;101638.00;4918468;28;6986;-79
2022/10/03 13:01:49;;;;;;;;;;;;;;;24.06;38.04;101640.72;4928641;28;6812;-80
2022/10/03 13:04:51;;;;;;;;;;;;;;;24.11;38.31;101633.81;4935410;28;8354;-79
2022/10/03 13:07:29;;;;;;;;;;;;;;;24.22;37.87;101633.91;4929749;28;6998;-80
2022/10/03 13:10:14;;;;;;;;;;;;;;;24.25;37.17;101623.47;4934735;28;8563;-80
2022/10/03 13:13:33;;;;;;;;;;;;;;;24.12;37.29;101629.44;4933345;28;6971;-80
2022/10/03 13:16:33;;;;;;;;;;;;;;;23.94;37.26;101630.94;4928915;28;7029;-79
2022/10/03 13:19:11;;;;;;;;;;;;;;;23.84;37.44;101624.72;4933772;28;6996;-80
2022/10/03 13:21:43;;;;;;;;;;;;;;;23.71;37.73;101620.22;4918918;29;9075;-79
2022/10/03 13:24:33;;;;;;;;;;;;;;;23.63;37.75;101625.31;4936111;28;7393;-79
2022/10/03 13:27:35;;;;;;;;;;;;;;;23.52;37.53;101619.06;4938242;28;7255;-80
2022/10/03 13:30:30;;;;;;;;;;;;;;;23.48;37.86;101619.91;4915774;28;7227;-80
2022/10/03 13:33:27;;;;;;;;;;;;;;;23.43;37.79;101622.47;4936942;28;11565;-80
2022/10/03 13:36:17;;;;;;;;;;;;;;;23.44;37.73;101608.50;4927904;29;6828;-78
2022/10/03 13:39:05;;;;;;;;;;;;;;;23.42;38.15;101615.47;4938981;28;6896;-81
2022/10/03 13:41:41;;;;;;;;;;;;;;;23.38;38.25;101611.03;4935808;28;6820;-79
2022/10/03 13:44:22;;;;;;;;;;;;;;;23.29;38.07;101604.81;4936694;28;6981;-80
2022/10/03 13:47:27;;;;;;;;;;;;;;;23.21;37.64;101606.41;4934034;28;6989;-80
2022/10/03 13:50:01;;;;;;;;;;;;;;;23.06;37.69;101603.56;4924034;28;6848;-79
2022/10/03 13:52:45;;;;;;;;;;;;;;;22.94;38.02;101596.41;4943558;28;6952;-80
2022/10/03 13:55:27;;;;;;;;;;;;;;;22.79;37.61;101592.72;4938751;28;7200;-79
2022/10/03 13:58:31;;;;;;;;;;;;;;;22.64;37.84;101598.53;4941630;28;6983;-80
2022/10/03 14:01:12;;;;;;;;;;;;;;;22.48;38.73;101594.75;4932295;28;7211;-80
2022/10/03 14:04:08;;;;;;;;;;;;;;;22.35;38.76;101593.66;4941608;28;7106;-80
2022/10/03 14:06:51;;;;;;;;;;;;;;;22.32;38.82;101606.66;4938361;28;6940;-80
2022/10/03 14:10:15;;;;;;;;;;;;;;;22.32;39.05;101591.88;4939929;28;6910;-80
2022/10/03 14:13:11;;;;;;;;;;;;;;;22.37;39.29;101596.31;4938289;28;10334;-81
2022/10/03 14:15:47;;;;;;;;;;;;;;;22.40;38.97;101602.47;4933918;28;8519;-80
2022/10/03 14:18:22;;;;;;;;;;;;;;;22.41;39.36;101596.38;4938245;28;7106;-80
2022/10/03 14:21:38;;;;;;;;;;;;;;;22.39;39.46;101592.88;4940315;28;6981;-80
2022/10/03 14:24:35;;;;;;;;;;;;;;;22.37;38.75;101580.63;4942346;28;6998;-80
2022/10/03 14:27:39;;;;;;;;;;;;;;;22.36;39.09;101591.94;4939245;28;7412;-81
2022/10/03 14:30:15;;;;;;;;;;;;;;;22.26;38.85;101591.75;4938562;28;7389;-79
2022/10/03 14:33:03;;;;;;;;;;;;;;;22.18;39.31;101589.03;4941322;28;11776;-79
2022/10/03 14:36:05;;;;;;;;;;;;;;;22.09;39.62;101586.22;4924207;28;8461;-80
2022/10/03 14:38:57;;;;;;;;;;;;;;;22.05;39.54;101581.78;4941712;28;7032;-80
2022/10/03 14:41:31;;;;;;;;;;;;;;;22.07;39.65;101577.50;4939206;28;6804;-80
2022/10/03 14:44:08;;;;;;;;;;;;;;;22.13;39.91;101569.75;4932750;28;6796;-79
2022/10/03 14:46:53;;;;;;;;;;;;;;;22.18;39.58;101572.47;4928365;28;7418;-79
2022/10/03 14:49:30;;;;;;;;;;;;;;;22.18;39.67;101559.41;4935610;28;6979;-80
2022/10/03 14:52:17;;;;;;;;;;;;;;;22.19;39.30;101562.06;4934421;28;7001;-79
2022/10/03 14:54:44;;;;;;;;;;;;;;;22.26;39.56;101560.44;4934923;28;6875;-79
2022/10/03 14:58:12;;;;;;;;;;;;;;;22.32;39.09;101568.38;4938339;28;6855;-79
2022/10/03 15:01:27;;;;;;;;;;;;;;;22.40;39.48;101563.28;4882589;28;10869;-79
2022/10/03 15:04:16;;;;;;;;;;;;;;;22.44;39.53;101559.84;4879311;29;7131;-79
2022/10/03 15:06:44;;;;;;;;;;;;;;;22.48;39.78;101566.03;4904143;29;8641;-79
2022/10/03 15:09:25;;;;;;;;;;;;;;;22.51;39.81;101555.69;4921218;29;7226;-79
2022/10/03 15:11:59;;;;;;;;;;;;;;;22.54;39.66;101558.34;4918826;29;7201;-80
2022/10/03 15:14:29;;;;;;;;;;;;;;;22.56;39.95;101553.16;4922668;29;7506;-80
2022/10/03 15:16:58;;;;;;;;;;;;;;;22.56;39.97;101547.91;4915777;28;7133;-79
2022/10/03 15:19:38;;;;;;;;;;;;;;;22.57;40.02;101544.44;4900549;29;7011;-79
2022/10/03 15:22:39;;;;;;;;;;;;;;;22.58;40.41;101546.19;4920234;28;6907;-80
2022/10/03 15:25:16;;;;;;;;;;;;;;;22.55;40.48;101544.41;4919141;29;7254;-79
2022/10/03 15:27:48;;;;;;;;;;;;;;;22.54;40.52;101532.22;4921479;28;6978;-79
2022/10/03 15:30:35;;;;;;;;;;;;;;;22.47;40.30;101533.81;4888173;28;8549;-79